Medora, Indiana
Current Conditions -  °F | °C
As of 1:53 PM on Friday 24 Oct 2014 (Local Time) from KBMG Reporting Station
Few Clouds Few Clouds  
Wind Chill: 63°   Ceiling: Unl
Heat Index: 63°   Visibility: 10mi
Dew Point: 48°   Wind: 7mph
Humidity: 58%   Direction: NA
Pressure: 30.08"   Gusts: NA
Location:  38.83°N, 86.17°W
Report Text: KBMG 241753Z VRB06KT 10SM FEW026 17/09 A3008 RMK AO2 SLP185 60000 T01720089 10172 20044 58015
Loading
Personal Weather Stations






























Interactive Weather Map
Tropical Storm Tracking
New forecast layout! Learn more

10-Day Weather Forecast

Advertisements
Track Severe Weather on mobile